createdAt,value
2023-02-22T00:00:46.642Z,10.14
2023-02-22T00:01:46.677Z,10.12
2023-02-22T00:02:46.654Z,10.07
2023-02-22T00:03:46.622Z,10.09
2023-02-22T00:04:46.606Z,10.04
2023-02-22T00:05:46.619Z,10.04
2023-02-22T00:06:46.654Z,10.02
2023-02-22T00:07:46.608Z,10.04
2023-02-22T00:08:46.596Z,10.01
2023-02-22T00:09:46.600Z,10.08
2023-02-22T00:10:46.618Z,10.02
2023-02-22T00:11:46.637Z,10.02
2023-02-22T00:12:46.582Z,9.99
2023-02-22T00:13:46.594Z,10.04
2023-02-22T00:14:46.597Z,10.05
2023-02-22T00:15:55.172Z,9.99
2023-02-22T00:16:55.923Z,9.89
2023-02-22T00:17:54.952Z,9.86
2023-02-22T00:18:46.594Z,9.74
2023-02-22T00:21:25.962Z,9.64
2023-02-22T00:22:33.517Z,9.56
2023-02-22T00:23:36.118Z,9.57
2023-02-22T00:24:25.971Z,9.53
2023-02-22T00:25:25.911Z,9.56
2023-02-22T00:26:25.904Z,9.56
2023-02-22T00:27:34.151Z,9.56
2023-02-22T00:28:25.913Z,9.53
2023-02-22T00:29:25.916Z,9.56
2023-02-22T00:30:25.937Z,9.53
2023-02-22T00:31:25.954Z,9.58
2023-02-22T00:32:33.515Z,9.56
2023-02-22T00:33:25.896Z,9.56
2023-02-22T00:34:25.909Z,9.56
2023-02-22T00:35:25.893Z,9.48
2023-02-22T00:36:33.488Z,9.46
2023-02-22T00:37:25.890Z,9.42
2023-02-22T00:38:25.881Z,9.46
2023-02-22T00:39:33.443Z,9.43
2023-02-22T00:40:25.882Z,9.46
2023-02-22T00:41:25.895Z,9.47
2023-02-22T00:42:25.872Z,9.47
2023-02-22T00:43:25.866Z,9.47
2023-02-22T00:44:25.882Z,9.48
2023-02-22T00:45:25.883Z,9.42
2023-02-22T00:46:25.880Z,9.43
2023-02-22T00:47:25.855Z,9.43
2023-02-22T00:48:25.869Z,9.48
2023-02-22T00:49:25.852Z,9.43
2023-02-22T00:50:25.847Z,9.51
2023-02-22T00:51:25.839Z,9.51
2023-02-22T00:52:25.877Z,9.47
2023-02-22T00:53:25.855Z,9.43
2023-02-22T00:54:25.881Z,9.43
2023-02-22T00:55:25.838Z,9.42
2023-02-22T00:56:25.842Z,9.50
2023-02-22T00:57:25.854Z,9.47
2023-02-22T00:58:25.851Z,9.50
2023-02-22T00:59:25.835Z,9.40
2023-02-22T01:00:25.834Z,9.43
2023-02-22T01:01:25.885Z,9.46
2023-02-22T01:02:25.994Z,9.42
2023-02-22T01:03:25.837Z,9.42
2023-02-22T01:04:25.846Z,9.38
2023-02-22T01:05:25.819Z,9.32
2023-02-22T01:06:25.850Z,9.38
2023-02-22T01:07:25.818Z,9.29
2023-02-22T01:08:25.817Z,9.24
2023-02-22T01:09:25.822Z,9.15
2023-02-22T01:10:25.822Z,9.13
2023-02-22T01:11:25.805Z,9.14
2023-02-22T01:12:25.812Z,9.05
2023-02-22T01:13:25.804Z,9.08
2023-02-22T01:14:25.808Z,9.02
2023-02-22T01:15:25.811Z,8.98
2023-02-22T01:16:25.827Z,9.05
2023-02-22T01:17:25.824Z,9.02
2023-02-22T01:18:25.824Z,9.02
2023-02-22T01:19:25.803Z,8.95
2023-02-22T01:20:25.800Z,8.95
2023-02-22T01:21:25.794Z,8.94
2023-02-22T01:22:25.798Z,8.94
2023-02-22T01:23:25.783Z,8.91
2023-02-22T01:24:25.786Z,8.86
2023-02-22T01:25:25.779Z,8.94
2023-02-22T01:26:25.794Z,8.89
2023-02-22T01:27:25.785Z,8.89
2023-02-22T01:28:25.792Z,8.92
2023-02-22T01:29:25.772Z,8.89
2023-02-22T01:30:25.909Z,8.92
2023-02-22T01:31:25.863Z,8.94
2023-02-22T01:32:25.770Z,8.91
2023-02-22T01:33:25.794Z,8.91
2023-02-22T01:34:25.775Z,8.91
2023-02-22T01:35:25.760Z,8.91
2023-02-22T01:36:25.781Z,9.02
2023-02-22T01:37:25.777Z,8.89
2023-02-22T01:38:25.765Z,8.83
2023-02-22T01:39:25.781Z,8.83
2023-02-22T01:40:25.737Z,8.77
2023-02-22T01:41:25.740Z,8.81
2023-02-22T01:42:25.741Z,8.77
2023-02-22T01:43:25.748Z,8.76
2023-02-22T01:44:25.742Z,8.77
2023-02-22T01:45:25.722Z,8.87
2023-02-22T01:46:25.773Z,8.80
2023-02-22T01:47:25.723Z,8.74
2023-02-22T01:48:25.763Z,8.73
2023-02-22T01:49:25.733Z,8.76
2023-02-22T01:50:25.717Z,8.65
2023-02-22T01:51:25.793Z,8.71
2023-02-22T01:52:25.718Z,8.65
2023-02-22T01:53:25.743Z,8.63
2023-02-22T01:54:25.749Z,8.58
2023-02-22T01:55:25.705Z,8.52
2023-02-22T01:56:25.707Z,8.52
2023-02-22T01:57:25.736Z,8.48
2023-02-22T01:58:25.721Z,8.56
2023-02-22T01:59:25.698Z,8.48
2023-02-22T02:00:25.746Z,8.52
2023-02-22T02:01:25.714Z,8.47
2023-02-22T02:02:25.708Z,8.45
2023-02-22T02:03:25.706Z,8.47
2023-02-22T02:04:25.870Z,8.48
2023-02-22T02:05:25.718Z,8.45
2023-02-22T02:06:25.679Z,8.40
2023-02-22T02:07:25.680Z,8.44
2023-02-22T02:08:25.682Z,8.45
2023-02-22T02:09:25.704Z,8.47
2023-02-22T02:10:25.664Z,8.44
2023-02-22T02:11:25.717Z,8.47
2023-02-22T02:12:25.707Z,8.47
2023-02-22T02:13:25.667Z,8.53
2023-02-22T02:14:25.672Z,8.50
2023-02-22T02:15:25.694Z,8.55
2023-02-22T02:16:25.755Z,8.52
2023-02-22T02:17:25.659Z,8.53
2023-02-22T02:18:25.662Z,8.61
2023-02-22T02:19:25.651Z,8.52
2023-02-22T02:20:25.648Z,8.50
2023-02-22T02:21:25.682Z,8.52
2023-02-22T02:22:25.672Z,8.52
2023-02-22T02:23:25.653Z,8.55
2023-02-22T02:24:25.654Z,8.52
2023-02-22T02:25:25.646Z,8.52
2023-02-22T02:26:25.642Z,8.53
2023-02-22T02:27:25.650Z,8.55
2023-02-22T02:28:25.630Z,8.52
2023-02-22T02:29:25.638Z,8.55
2023-02-22T02:30:25.676Z,8.55
2023-02-22T02:31:25.639Z,8.47
2023-02-22T02:32:25.726Z,8.48
2023-02-22T02:33:25.616Z,8.40
2023-02-22T02:34:25.629Z,8.43
2023-02-22T02:35:25.631Z,8.43
2023-02-22T02:36:25.621Z,8.37
2023-02-22T02:37:25.612Z,8.43
2023-02-22T02:38:25.643Z,8.36
2023-02-22T02:39:25.613Z,8.36
2023-02-22T02:40:25.715Z,8.38
2023-02-22T02:41:25.638Z,8.40
2023-02-22T02:42:25.626Z,8.36
2023-02-22T02:43:25.643Z,8.36
2023-02-22T02:44:25.599Z,8.40
2023-02-22T02:45:25.644Z,8.34
2023-02-22T02:46:25.608Z,8.38
2023-02-22T02:47:25.629Z,8.38
2023-02-22T02:48:25.598Z,8.40
2023-02-22T02:49:25.596Z,8.36
2023-02-22T02:50:25.584Z,8.33
2023-02-22T02:51:25.576Z,8.30
2023-02-22T02:52:25.608Z,8.34
2023-02-22T02:53:25.580Z,8.37
2023-02-22T02:54:25.624Z,8.41
2023-02-22T02:55:25.574Z,8.38
2023-02-22T02:56:25.562Z,8.29
2023-02-22T02:57:25.572Z,8.38
2023-02-22T02:58:25.571Z,8.28
2023-02-22T02:59:25.666Z,8.19
2023-02-22T03:00:25.591Z,8.28
2023-02-22T03:01:25.635Z,8.30
2023-02-22T03:02:25.572Z,8.30
2023-02-22T03:03:25.564Z,8.26
2023-02-22T03:04:25.540Z,8.29
2023-02-22T03:05:25.544Z,8.29
2023-02-22T03:06:25.542Z,8.36
2023-02-22T03:07:25.611Z,8.36
2023-02-22T03:08:25.534Z,8.33
2023-02-22T03:09:25.552Z,8.34
2023-02-22T03:10:25.553Z,8.30
2023-02-22T03:11:25.557Z,8.37
2023-02-22T03:12:25.539Z,8.30
2023-02-22T03:13:25.548Z,8.29
2023-02-22T03:14:25.556Z,8.37
2023-02-22T03:15:25.531Z,8.37
2023-02-22T03:16:25.564Z,8.23
2023-02-22T03:17:25.526Z,8.23
2023-02-22T03:18:25.529Z,8.20
2023-02-22T03:19:25.513Z,8.20
2023-02-22T03:20:25.547Z,8.20
2023-02-22T03:21:25.519Z,8.20
2023-02-22T03:22:25.507Z,8.23
2023-02-22T03:23:25.536Z,8.18
2023-02-22T03:24:25.520Z,8.18
2023-02-22T03:25:25.493Z,8.20
2023-02-22T03:26:25.496Z,8.22
2023-02-22T03:27:25.505Z,8.19
2023-02-22T03:28:25.520Z,8.16
2023-02-22T03:29:25.490Z,8.11
2023-02-22T03:30:25.526Z,8.02
2023-02-22T03:31:25.528Z,8.01
2023-02-22T03:32:25.496Z,8.01
2023-02-22T03:33:25.494Z,7.93
2023-02-22T03:34:25.497Z,7.95
2023-02-22T03:35:25.504Z,7.98
2023-02-22T03:36:25.465Z,8.00
2023-02-22T03:37:25.470Z,8.04
2023-02-22T03:38:25.459Z,7.98
2023-02-22T03:39:25.499Z,7.98
2023-02-22T03:40:25.464Z,8.04
2023-02-22T03:41:25.896Z,8.04
2023-02-22T03:42:25.462Z,8.02
2023-02-22T03:43:25.447Z,8.12
2023-02-22T03:44:25.453Z,8.10
2023-02-22T03:45:25.460Z,8.10
2023-02-22T03:46:25.455Z,8.11
2023-02-22T03:47:25.490Z,8.20
2023-02-22T03:48:25.463Z,8.25
2023-02-22T03:49:25.451Z,8.15
2023-02-22T03:50:25.461Z,8.18
2023-02-22T03:51:25.432Z,8.23
2023-02-22T03:52:25.455Z,8.16
2023-02-22T03:53:25.431Z,8.20
2023-02-22T03:54:25.418Z,8.20
2023-02-22T03:55:25.424Z,8.22
2023-02-22T03:56:25.410Z,8.26
2023-02-22T03:57:25.443Z,8.26
2023-02-22T03:58:25.452Z,8.22
2023-02-22T03:59:25.426Z,8.28
2023-02-22T04:00:25.420Z,8.18
2023-02-22T04:01:25.428Z,8.22
2023-02-22T04:02:25.434Z,8.29
2023-02-22T04:03:25.401Z,8.26
2023-02-22T04:04:25.460Z,8.30
2023-02-22T04:05:25.394Z,8.36
2023-02-22T04:06:25.393Z,8.37
2023-02-22T04:07:25.384Z,8.30
2023-02-22T04:08:25.413Z,8.22
2023-02-22T04:09:25.385Z,8.33
2023-02-22T04:10:25.391Z,8.20
2023-02-22T04:11:25.428Z,8.28
2023-02-22T04:12:25.416Z,8.26
2023-02-22T04:13:25.385Z,8.30
2023-02-22T04:14:25.388Z,8.34
2023-02-22T04:15:25.394Z,8.33
2023-02-22T04:16:25.391Z,8.36
2023-02-22T04:17:25.390Z,8.29
2023-02-22T04:18:25.397Z,8.36
2023-02-22T04:19:25.367Z,8.29
2023-02-22T04:20:25.426Z,8.25
2023-02-22T04:21:25.372Z,8.28
2023-02-22T04:22:25.346Z,8.33
2023-02-22T04:23:25.361Z,8.29
2023-02-22T04:24:25.360Z,8.33
2023-02-22T04:25:25.346Z,8.37
2023-02-22T04:26:25.337Z,8.30
2023-02-22T04:27:25.341Z,8.34
2023-02-22T04:28:25.364Z,8.37
2023-02-22T04:29:25.343Z,8.36
2023-02-22T04:30:25.379Z,8.29
2023-02-22T04:31:25.379Z,8.26
2023-02-22T04:32:25.339Z,8.34
2023-02-22T04:33:25.331Z,8.37
2023-02-22T04:34:25.348Z,8.38
2023-02-22T04:35:25.336Z,8.38
2023-02-22T04:36:25.325Z,8.43
2023-02-22T04:37:25.322Z,8.43
2023-02-22T04:38:25.309Z,8.41
2023-02-22T04:39:25.350Z,8.38
2023-02-22T04:40:25.306Z,8.41
2023-02-22T04:41:25.709Z,8.40
2023-02-22T04:42:25.327Z,8.41
2023-02-22T04:43:25.322Z,8.38
2023-02-22T04:44:25.340Z,8.41
2023-02-22T04:45:25.494Z,8.37
2023-02-22T04:46:26.310Z,8.47
2023-02-22T04:47:25.331Z,8.43
2023-02-22T04:48:25.291Z,8.41
2023-02-22T04:49:25.304Z,8.38
2023-02-22T04:50:25.296Z,8.38
2023-02-22T04:51:25.342Z,8.38
2023-02-22T04:52:25.279Z,8.41
2023-02-22T04:53:25.277Z,8.38
2023-02-22T04:54:25.269Z,8.40
2023-02-22T04:55:25.266Z,8.44
2023-02-22T04:56:25.312Z,8.40
2023-02-22T04:57:25.283Z,8.47
2023-02-22T04:58:25.282Z,8.45
2023-02-22T04:59:25.254Z,8.37
2023-02-22T05:00:25.266Z,8.40
2023-02-22T05:01:25.292Z,8.38
2023-02-22T05:02:25.276Z,8.41
2023-02-22T05:03:25.255Z,8.40
2023-02-22T05:04:25.270Z,8.43
2023-02-22T05:05:25.280Z,8.41
2023-02-22T05:06:25.247Z,8.41
2023-02-22T05:07:25.285Z,8.43
2023-02-22T05:08:25.249Z,8.43
2023-02-22T05:09:25.275Z,8.43
2023-02-22T05:10:25.242Z,8.38
2023-02-22T05:11:25.240Z,8.38
2023-02-22T05:12:25.247Z,8.40
2023-02-22T05:13:25.247Z,8.37
2023-02-22T05:14:25.224Z,8.37
2023-02-22T05:15:25.260Z,8.43
2023-02-22T05:16:25.265Z,8.43
2023-02-22T05:17:25.222Z,8.37
2023-02-22T05:18:25.215Z,8.45
2023-02-22T05:19:25.210Z,8.47
2023-02-22T05:20:25.212Z,8.47
2023-02-22T05:21:25.206Z,8.47
2023-02-22T05:22:25.209Z,8.45
2023-02-22T05:23:25.195Z,8.45
2023-02-22T05:24:25.194Z,8.44
2023-02-22T05:25:25.202Z,8.44
2023-02-22T05:26:25.206Z,8.50
2023-02-22T05:27:25.207Z,8.55
2023-02-22T05:28:25.203Z,8.48
2023-02-22T05:29:25.213Z,8.47
2023-02-22T05:30:25.254Z,8.44
2023-02-22T05:31:25.373Z,8.50
2023-02-22T05:32:25.248Z,8.47
2023-02-22T05:33:25.298Z,8.44
2023-02-22T05:34:25.178Z,8.44
2023-02-22T05:35:25.175Z,8.44
2023-02-22T05:36:25.178Z,8.50
2023-02-22T05:37:25.180Z,8.50
2023-02-22T05:38:25.203Z,8.55
2023-02-22T05:39:25.179Z,8.47
2023-02-22T05:40:25.204Z,8.50
2023-02-22T05:41:25.169Z,8.44
2023-02-22T05:42:25.164Z,8.55
2023-02-22T05:43:25.278Z,8.52
2023-02-22T05:44:25.179Z,8.45
2023-02-22T05:45:25.156Z,8.43
2023-02-22T05:46:25.184Z,8.50
2023-02-22T05:47:25.156Z,8.43
2023-02-22T05:48:25.162Z,8.47
2023-02-22T05:49:25.269Z,8.47
2023-02-22T05:50:25.149Z,8.52
2023-02-22T05:51:25.149Z,8.53
2023-02-22T05:52:25.167Z,8.56
2023-02-22T05:53:25.116Z,8.53
2023-02-22T05:54:25.124Z,8.55
2023-02-22T05:55:25.141Z,8.52
2023-02-22T05:56:25.143Z,8.59
2023-02-22T05:57:25.124Z,8.59
2023-02-22T05:58:25.120Z,8.55
2023-02-22T05:59:25.111Z,8.52
2023-02-22T06:00:25.113Z,8.48
2023-02-22T06:01:25.109Z,8.52
2023-02-22T06:02:25.119Z,8.52
2023-02-22T06:03:25.090Z,8.45
2023-02-22T06:04:25.094Z,8.47
2023-02-22T06:05:25.143Z,8.45
2023-02-22T06:06:25.100Z,8.44
2023-02-22T06:07:25.080Z,8.45
2023-02-22T06:08:25.104Z,8.50
2023-02-22T06:09:25.104Z,8.52
2023-02-22T06:10:25.086Z,8.40
2023-02-22T06:11:25.097Z,8.44
2023-02-22T06:12:25.076Z,8.43
2023-02-22T06:13:25.082Z,8.48
2023-02-22T06:14:25.090Z,8.48
2023-02-22T06:15:25.074Z,8.59
2023-02-22T06:16:25.112Z,8.56
2023-02-22T06:17:25.064Z,8.61
2023-02-22T06:18:25.080Z,8.66
2023-02-22T06:19:25.066Z,8.61
2023-02-22T06:20:25.063Z,8.63
2023-02-22T06:21:25.065Z,8.68
2023-02-22T06:22:25.043Z,8.71
2023-02-22T06:23:25.064Z,8.62
2023-02-22T06:24:25.053Z,8.71
2023-02-22T06:25:25.063Z,8.76
2023-02-22T06:26:25.045Z,8.65
2023-02-22T06:27:25.056Z,8.63
2023-02-22T06:28:25.074Z,8.62
2023-02-22T06:29:25.042Z,8.73
2023-02-22T06:30:25.025Z,8.62
2023-02-22T06:31:25.055Z,8.74
2023-02-22T06:32:25.062Z,8.65
2023-02-22T06:33:25.035Z,8.71
2023-02-22T06:34:25.037Z,8.76
2023-02-22T06:35:25.039Z,8.76
2023-02-22T06:36:25.030Z,8.70
2023-02-22T06:37:25.021Z,8.71
2023-02-22T06:38:25.016Z,8.73
2023-02-22T06:39:25.016Z,8.74
2023-02-22T06:40:25.065Z,8.77
2023-02-22T06:41:25.027Z,8.66
2023-02-22T06:42:25.081Z,8.77
2023-02-22T06:43:25.037Z,8.74
2023-02-22T06:44:24.991Z,8.68
2023-02-22T06:45:25.065Z,8.87
2023-02-22T06:46:25.000Z,8.80
2023-02-22T06:47:25.042Z,8.81
2023-02-22T06:48:24.987Z,8.81
2023-02-22T06:49:25.112Z,8.95
2023-02-22T06:50:24.974Z,8.94
2023-02-22T06:51:24.984Z,8.84
2023-02-22T06:52:24.994Z,8.89
2023-02-22T06:53:24.989Z,8.87
2023-02-22T06:54:24.971Z,8.89
2023-02-22T06:55:24.966Z,8.81
2023-02-22T06:56:24.966Z,8.87
2023-02-22T06:57:25.000Z,8.92
2023-02-22T06:58:24.970Z,8.96
2023-02-22T06:59:24.967Z,8.96
2023-02-22T07:00:24.988Z,9.01
2023-02-22T07:01:24.958Z,8.98
2023-02-22T07:02:24.967Z,8.99
2023-02-22T07:03:25.011Z,8.91
2023-02-22T07:04:24.940Z,8.98
2023-02-22T07:05:24.951Z,8.99
2023-02-22T07:06:24.946Z,8.95
2023-02-22T07:07:24.938Z,9.04
2023-02-22T07:08:24.940Z,8.99
2023-02-22T07:09:24.967Z,8.91
2023-02-22T07:10:24.935Z,9.02
2023-02-22T07:11:24.923Z,9.01
2023-02-22T07:12:24.937Z,8.99
2023-02-22T07:13:24.934Z,9.05
2023-02-22T07:14:24.947Z,9.02
2023-02-22T07:15:24.931Z,9.01
2023-02-22T07:16:24.975Z,9.10
2023-02-22T07:17:24.916Z,9.13
2023-02-22T07:18:24.928Z,8.96
2023-02-22T07:19:24.916Z,9.10
2023-02-22T07:20:24.935Z,9.05
2023-02-22T07:21:24.916Z,9.10
2023-02-22T07:22:24.915Z,9.14
2023-02-22T07:23:24.918Z,9.10
2023-02-22T07:24:24.920Z,9.10
2023-02-22T07:25:24.918Z,9.10
2023-02-22T07:26:24.961Z,9.13
2023-02-22T07:27:24.965Z,9.13
2023-02-22T07:28:24.894Z,8.98
2023-02-22T07:29:24.912Z,9.05
2023-02-22T07:30:25.018Z,8.99
2023-02-22T07:31:24.895Z,8.99
2023-02-22T07:32:25.044Z,9.01
2023-02-22T07:33:24.924Z,9.04
2023-02-22T07:34:24.900Z,8.99
2023-02-22T07:35:24.928Z,8.96
2023-02-22T07:36:24.893Z,9.05
2023-02-22T07:37:24.929Z,8.99
2023-02-22T07:38:24.882Z,9.01
2023-02-22T07:39:24.868Z,8.96
2023-02-22T07:40:24.864Z,8.96
2023-02-22T07:41:24.893Z,9.10
2023-02-22T07:42:24.922Z,9.13
2023-02-22T07:43:24.857Z,9.13
2023-02-22T07:44:24.856Z,9.13
2023-02-22T07:45:24.860Z,9.05
2023-02-22T07:46:24.870Z,9.10
2023-02-22T07:47:24.843Z,9.10
2023-02-22T07:48:24.858Z,9.08
2023-02-22T07:49:24.928Z,9.13
2023-02-22T07:50:24.849Z,9.05
2023-02-22T07:51:24.889Z,9.08
2023-02-22T07:52:24.845Z,9.14
2023-02-22T07:53:24.909Z,9.13
2023-02-22T07:54:24.857Z,9.10
2023-02-22T07:55:24.825Z,9.13
2023-02-22T07:56:24.822Z,9.05
2023-02-22T07:57:24.822Z,9.18
2023-02-22T07:58:24.846Z,9.14
2023-02-22T07:59:24.829Z,9.13
2023-02-22T08:00:24.834Z,9.10
2023-02-22T08:01:27.386Z,9.13
2023-02-22T08:02:24.844Z,9.05
2023-02-22T08:03:24.928Z,9.10
2023-02-22T08:04:24.827Z,9.13
2023-02-22T08:05:24.815Z,9.10
2023-02-22T08:06:24.804Z,9.13
2023-02-22T08:07:24.803Z,9.13
2023-02-22T08:08:24.832Z,9.17
2023-02-22T08:09:25.808Z,9.17
2023-02-22T08:10:24.801Z,9.13
2023-02-22T08:11:24.796Z,9.18
2023-02-22T08:12:24.824Z,9.18
2023-02-22T08:13:24.804Z,9.28
2023-02-22T08:14:24.807Z,9.21
2023-02-22T08:15:24.785Z,9.24
2023-02-22T08:16:24.803Z,9.31
2023-02-22T08:17:24.837Z,9.32
2023-02-22T08:18:24.807Z,9.31
2023-02-22T08:19:24.786Z,9.35
2023-02-22T08:20:24.772Z,9.36
2023-02-22T08:21:24.798Z,9.38
2023-02-22T08:22:24.766Z,9.38
2023-02-22T08:23:24.771Z,9.33
2023-02-22T08:24:24.777Z,9.36
2023-02-22T08:25:24.787Z,9.36
2023-02-22T08:26:24.769Z,9.38
2023-02-22T08:27:24.772Z,9.38
2023-02-22T08:28:24.779Z,9.36
2023-02-22T08:29:24.745Z,9.35
2023-02-22T08:30:24.768Z,9.42
2023-02-22T08:31:24.795Z,9.40
2023-02-22T08:32:24.969Z,9.40
2023-02-22T08:33:24.997Z,9.47
2023-02-22T08:34:24.752Z,9.43
2023-02-22T08:35:24.738Z,9.46
2023-02-22T08:36:24.742Z,9.50
2023-02-22T08:37:24.746Z,9.47
2023-02-22T08:38:24.759Z,9.42
2023-02-22T08:39:24.762Z,9.46
2023-02-22T08:40:24.824Z,9.54
2023-02-22T08:41:24.734Z,9.51
2023-02-22T08:42:24.745Z,9.50
2023-02-22T08:43:24.755Z,9.54
2023-02-22T08:44:24.714Z,9.53
2023-02-22T08:45:24.734Z,9.57
2023-02-22T08:46:24.728Z,9.50
2023-02-22T08:47:24.706Z,9.54
2023-02-22T08:48:24.894Z,9.53
2023-02-22T08:49:24.725Z,9.56
2023-02-22T08:50:24.745Z,9.58
2023-02-22T08:51:26.272Z,9.50
2023-02-22T08:52:24.690Z,9.56
2023-02-22T08:53:24.697Z,9.50
2023-02-22T08:54:24.719Z,9.51
2023-02-22T08:55:24.708Z,9.50
2023-02-22T08:56:24.688Z,9.57
2023-02-22T08:57:24.695Z,9.54
2023-02-22T08:58:24.700Z,9.53
2023-02-22T08:59:24.685Z,9.60
2023-02-22T09:00:24.711Z,9.51
2023-02-22T09:01:32.733Z,9.65
2023-02-22T09:02:24.723Z,9.64
2023-02-22T09:03:24.726Z,9.60
2023-02-22T09:04:24.667Z,9.65
2023-02-22T09:05:24.673Z,9.64
2023-02-22T09:06:24.686Z,9.64
2023-02-22T09:07:24.666Z,9.50
2023-02-22T09:08:24.674Z,9.65
2023-02-22T09:09:24.651Z,9.68
2023-02-22T09:10:24.651Z,9.61
2023-02-22T09:11:24.912Z,9.68
2023-02-22T09:12:24.646Z,9.66
2023-02-22T09:13:24.642Z,9.66
2023-02-22T09:14:24.636Z,9.64
2023-02-22T09:15:24.648Z,9.74
2023-02-22T09:16:24.708Z,9.75
2023-02-22T09:17:24.631Z,9.75
2023-02-22T09:18:28.600Z,9.79
2023-02-22T09:19:24.644Z,9.72
2023-02-22T09:20:24.639Z,9.84
2023-02-22T09:21:24.628Z,9.83
2023-02-22T09:22:24.661Z,9.86
2023-02-22T09:23:24.629Z,9.91
2023-02-22T09:24:24.626Z,9.93
2023-02-22T09:25:24.623Z,9.96
2023-02-22T09:26:24.618Z,9.93
2023-02-22T09:27:24.607Z,9.96
2023-02-22T09:28:24.648Z,9.97
2023-02-22T09:29:24.612Z,10.05
2023-02-22T09:30:24.856Z,10.01
2023-02-22T09:31:24.764Z,10.02
2023-02-22T09:32:24.813Z,10.07
2023-02-22T09:33:24.727Z,10.08
2023-02-22T09:34:24.605Z,10.05
2023-02-22T09:35:24.597Z,10.08
2023-02-22T09:36:26.166Z,10.14
2023-02-22T09:37:24.588Z,10.04
2023-02-22T09:38:24.611Z,10.05
2023-02-22T09:39:24.643Z,10.09
2023-02-22T09:40:24.583Z,10.14
2023-02-22T09:41:24.588Z,10.15
2023-02-22T09:42:24.593Z,10.25
2023-02-22T09:43:24.570Z,10.12
2023-02-22T09:44:24.629Z,10.14
2023-02-22T09:45:24.578Z,10.23
2023-02-22T09:46:24.589Z,10.33
2023-02-22T09:47:24.599Z,10.23
2023-02-22T09:48:24.564Z,10.23
2023-02-22T09:49:24.576Z,10.30
2023-02-22T09:50:24.581Z,10.38
2023-02-22T09:51:24.561Z,10.30
2023-02-22T09:52:24.668Z,10.32
2023-02-22T09:53:26.382Z,10.27
2023-02-22T09:54:24.580Z,10.33
2023-02-22T09:55:24.562Z,10.27
2023-02-22T09:56:24.595Z,10.32
2023-02-22T09:57:24.554Z,10.27
2023-02-22T09:58:24.554Z,10.27
2023-02-22T09:59:24.934Z,10.41
2023-02-22T10:00:24.546Z,10.41
2023-02-22T10:01:34.953Z,10.27
2023-02-22T10:02:24.553Z,10.29
2023-02-22T10:03:24.606Z,10.32
2023-02-22T10:04:24.620Z,10.41
2023-02-22T10:05:25.391Z,10.27
2023-02-22T10:06:24.540Z,10.41
2023-02-22T10:07:25.153Z,10.41
2023-02-22T10:08:24.532Z,10.36
2023-02-22T10:09:26.357Z,10.38
2023-02-22T10:10:24.545Z,10.30
2023-02-22T10:11:24.544Z,10.41
2023-02-22T10:12:24.520Z,10.44
2023-02-22T10:13:24.526Z,10.41
2023-02-22T10:14:24.529Z,10.27
2023-02-22T10:15:24.542Z,10.41
2023-02-22T10:16:24.552Z,10.41
2023-02-22T10:17:24.523Z,10.41
2023-02-22T10:18:24.527Z,10.42
2023-02-22T10:19:24.518Z,10.30
2023-02-22T10:20:24.566Z,10.41
2023-02-22T10:21:24.525Z,10.40
2023-02-22T10:22:24.526Z,10.34
2023-02-22T10:23:24.490Z,10.41
2023-02-22T10:24:24.542Z,10.36
2023-02-22T10:25:24.505Z,10.42
2023-02-22T10:26:24.512Z,10.51
2023-02-22T10:27:24.492Z,10.53
2023-02-22T10:28:24.511Z,10.53
2023-02-22T10:29:24.493Z,10.61
2023-02-22T10:30:25.685Z,10.67
2023-02-22T10:31:24.613Z,10.68
2023-02-22T10:32:24.553Z,10.60
2023-02-22T10:33:24.480Z,10.56
2023-02-22T10:34:24.484Z,10.63
2023-02-22T10:35:24.591Z,10.55
2023-02-22T10:36:24.497Z,10.56
2023-02-22T10:37:26.490Z,10.61
2023-02-22T10:38:24.509Z,10.61
2023-02-22T10:39:24.500Z,10.60
2023-02-22T10:40:24.475Z,10.63
2023-02-22T10:41:24.457Z,10.56
2023-02-22T10:42:24.460Z,10.63
2023-02-22T10:43:24.540Z,10.64
2023-02-22T10:44:24.533Z,10.66
2023-02-22T10:45:24.463Z,10.67
2023-02-22T10:46:24.452Z,10.66
2023-02-22T10:47:24.452Z,10.70
2023-02-22T10:48:24.497Z,10.70
2023-02-22T10:49:24.458Z,10.60
2023-02-22T10:50:24.476Z,10.63
2023-02-22T10:51:24.486Z,10.59
2023-02-22T10:52:24.524Z,10.55
2023-02-22T10:53:24.473Z,10.68
2023-02-22T10:54:24.451Z,10.66
2023-02-22T10:55:24.448Z,10.66
2023-02-22T10:56:24.432Z,10.73
2023-02-22T10:57:24.463Z,10.60
2023-02-22T10:58:24.465Z,10.55
2023-02-22T10:59:25.650Z,10.63
2023-02-22T11:00:24.430Z,10.56
2023-02-22T11:01:24.486Z,10.64
2023-02-22T11:02:24.480Z,10.60
2023-02-22T11:03:24.461Z,10.67
2023-02-22T11:04:24.433Z,10.71
2023-02-22T11:05:24.419Z,10.70
2023-02-22T11:06:24.427Z,10.64
2023-02-22T11:07:24.461Z,10.66
2023-02-22T11:08:24.412Z,10.70
2023-02-22T11:09:24.432Z,10.79
2023-02-22T11:10:24.453Z,10.76
2023-02-22T11:11:24.402Z,10.76
2023-02-22T11:12:24.397Z,10.79
2023-02-22T11:13:24.398Z,10.79
2023-02-22T11:14:24.430Z,10.82
2023-02-22T11:15:24.465Z,10.81
2023-02-22T11:16:24.507Z,10.74
2023-02-22T11:17:24.412Z,10.67
2023-02-22T11:18:24.382Z,10.71
2023-02-22T11:19:24.429Z,10.68
2023-02-22T11:20:24.424Z,10.73
2023-02-22T11:21:24.418Z,10.74
2023-02-22T11:22:24.418Z,10.78
2023-02-22T11:23:24.385Z,10.82
2023-02-22T11:24:24.427Z,10.76
2023-02-22T11:25:24.388Z,10.74
2023-02-22T11:26:24.380Z,10.79
2023-02-22T11:27:24.373Z,10.89
2023-02-22T11:28:24.385Z,10.84
2023-02-22T11:29:24.357Z,10.89
2023-02-22T11:30:24.407Z,10.86
2023-02-22T11:31:24.486Z,10.96
2023-02-22T11:32:24.546Z,10.88
2023-02-22T11:33:24.378Z,10.85
2023-02-22T11:34:24.370Z,10.89
2023-02-22T11:35:24.351Z,10.94
2023-02-22T11:36:24.357Z,10.91
2023-02-22T11:37:24.341Z,10.92
2023-02-22T11:38:24.348Z,10.96
2023-02-22T11:39:24.426Z,10.96
2023-02-22T11:40:24.362Z,10.96
2023-02-22T11:41:24.470Z,10.91
2023-02-22T11:42:24.452Z,10.92
2023-02-22T11:43:24.346Z,10.91
2023-02-22T11:44:24.338Z,10.89
2023-02-22T11:45:24.323Z,10.97
2023-02-22T11:46:24.363Z,10.88
2023-02-22T11:47:24.339Z,10.91
2023-02-22T11:48:24.355Z,10.96
2023-02-22T11:49:24.317Z,10.91
2023-02-22T11:50:24.337Z,10.97
2023-02-22T11:51:24.351Z,11.06
2023-02-22T11:52:26.140Z,11.09
2023-02-22T11:53:24.335Z,11.09
2023-02-22T11:54:24.334Z,10.99
2023-02-22T11:55:36.444Z,11.14
2023-02-22T11:56:36.796Z,11.04
2023-02-22T11:57:24.348Z,11.10
2023-02-22T11:58:24.321Z,11.02
2023-02-22T11:59:24.294Z,11.14
2023-02-22T12:00:24.386Z,11.14
2023-02-22T12:01:24.312Z,11.21
2023-02-22T12:02:24.312Z,11.15
2023-02-22T12:03:24.942Z,11.03
2023-02-22T12:04:24.371Z,11.00
2023-02-22T12:05:24.330Z,11.04
2023-02-22T12:06:24.310Z,10.97
2023-02-22T12:07:24.300Z,11.00
2023-02-22T12:08:24.427Z,10.91
2023-02-22T12:09:24.353Z,11.03
2023-02-22T12:10:24.294Z,10.99
2023-02-22T12:11:24.312Z,11.03
2023-02-22T12:12:24.287Z,10.97
2023-02-22T12:13:24.324Z,10.94
2023-02-22T12:14:24.292Z,11.02
2023-02-22T12:15:24.331Z,10.96
2023-02-22T12:16:24.277Z,10.99
2023-02-22T12:17:24.292Z,10.99
2023-02-22T12:18:24.265Z,10.96
2023-02-22T12:19:24.899Z,10.96
2023-02-22T12:20:24.271Z,10.96
2023-02-22T12:21:24.305Z,11.03
2023-02-22T12:22:24.605Z,11.10
2023-02-22T12:23:24.258Z,11.04
2023-02-22T12:24:29.491Z,11.03
2023-02-22T12:25:24.276Z,11.02
2023-02-22T12:26:24.321Z,11.03
2023-02-22T12:27:24.396Z,11.00
2023-02-22T12:28:25.355Z,11.09
2023-02-22T12:29:24.333Z,11.06
2023-02-22T12:30:24.275Z,10.99
2023-02-22T12:31:24.296Z,11.02
2023-02-22T12:32:24.516Z,10.99
2023-02-22T12:33:24.278Z,10.97
2023-02-22T12:34:24.265Z,11.00
2023-02-22T12:35:24.265Z,11.02
2023-02-22T12:36:24.253Z,10.94
2023-02-22T12:37:24.240Z,10.96
2023-02-22T12:38:24.245Z,10.96
2023-02-22T12:39:24.231Z,10.97
2023-02-22T12:40:24.279Z,11.04
2023-02-22T12:41:24.273Z,11.07
2023-02-22T12:42:24.229Z,10.97
2023-02-22T12:43:24.234Z,11.04
2023-02-22T12:44:24.234Z,11.10
2023-02-22T12:45:24.371Z,11.07
2023-02-22T12:46:24.383Z,11.03
2023-02-22T12:47:24.212Z,11.11
2023-02-22T12:48:24.246Z,11.04
2023-02-22T12:49:24.222Z,11.04
2023-02-22T12:50:24.254Z,10.99
2023-02-22T12:51:24.244Z,11.09
2023-02-22T12:52:24.207Z,10.97
2023-02-22T12:53:24.247Z,11.06
2023-02-22T12:54:24.220Z,11.04
2023-02-22T12:55:24.227Z,11.00
2023-02-22T12:56:24.229Z,11.07
2023-02-22T12:57:24.212Z,11.06
2023-02-22T12:58:24.214Z,11.02
2023-02-22T12:59:24.218Z,11.09
2023-02-22T13:00:24.229Z,11.00
2023-02-22T13:01:24.266Z,11.06
2023-02-22T13:02:24.223Z,11.00
2023-02-22T13:03:24.208Z,10.99
2023-02-22T13:04:24.185Z,10.99
2023-02-22T13:05:24.205Z,11.09
2023-02-22T13:06:24.188Z,11.03
2023-02-22T13:07:24.195Z,11.10
2023-02-22T13:08:24.199Z,11.04
2023-02-22T13:09:24.196Z,11.09
2023-02-22T13:10:24.198Z,11.18
2023-02-22T13:11:24.218Z,11.11
2023-02-22T13:12:24.181Z,11.06